Time;durP1;ratioP1;P1;durP2;ratioP2;P2;SDS_P1;SDS_P2;PMS_P1;PMS_P2;Temp;Humidity;BMP_temperature;BMP_pressure;BME280_temperature;BME280_humidity;BME280_pressure;Samples;Min_cycle;Max_cycle;Signal;HPM_P1;HPM_P2
2022/10/06 00:02:17;;;;;;;0.50;0.30;;;22.50;50.20;;;;;;6109825;28;20093;-65
2022/10/06 00:05:19;;;;;;;1.02;0.40;;;22.80;50.10;;;;;;6111965;28;20047;-65
2022/10/06 00:08:20;;;;;;;;;;;22.70;50.20;;;;;;6120194;28;21154;-65
2022/10/06 00:11:23;;;;;;;0.38;0.20;;;23.20;50.40;;;;;;6122218;28;19937;-65
2022/10/06 00:14:25;;;;;;;0.20;0.20;;;22.60;49.90;;;;;;6120328;28;20062;-65
2022/10/06 00:17:26;;;;;;;0.68;0.40;;;22.40;50.00;;;;;;6117411;28;20137;-65
2022/10/06 00:20:28;;;;;;;;;;;22.30;50.50;;;;;;6118649;28;20058;-65
2022/10/06 00:23:32;;;;;;;0.30;0.20;;;22.40;50.00;;;;;;6116057;28;19937;-66
2022/10/06 00:26:34;;;;;;;0.88;0.30;;;22.90;50.10;;;;;;6120410;28;20051;-65
2022/10/06 00:29:36;;;;;;;0.20;0.20;;;22.40;49.60;;;;;;6121005;28;20954;-65
2022/10/06 00:32:41;;;;;;;;;;;22.40;49.70;;;;;;6122537;28;21040;-65
2022/10/06 00:35:43;;;;;;;0.40;0.32;;;22.70;50.00;;;;;;6119977;28;19938;-65
2022/10/06 00:38:45;;;;;;;0.70;0.30;;;22.10;49.50;;;;;;6123232;28;20090;-65
2022/10/06 00:41:50;;;;;;;0.50;0.30;;;22.50;49.70;;;;;;6117524;28;20997;-65
2022/10/06 00:44:52;;;;;;;0.40;0.30;;;22.40;49.60;;;;;;6124445;28;20150;-66
2022/10/06 00:47:57;;;;;;;0.45;0.28;;;22.80;49.60;;;;;;6118011;28;20213;-65
2022/10/06 00:50:59;;;;;;;0.38;0.20;;;22.50;49.30;;;;;;6107377;28;20074;-65
2022/10/06 00:54:02;;;;;;;0.40;0.20;;;22.30;49.30;;;;;;6110582;28;20046;-65
2022/10/06 00:57:05;;;;;;;0.40;0.20;;;22.30;49.10;;;;;;6109016;28;20442;-65
2022/10/06 01:00:08;;;;;;;0.60;0.30;;;22.90;49.50;;;;;;6107715;28;20058;-65
2022/10/06 01:03:14;;;;;;;0.35;0.20;;;22.40;49.10;;;;;;6110503;28;20053;-65
2022/10/06 01:06:16;;;;;;;0.65;0.30;;;22.10;48.90;;;;;;6113492;28;20153;-66
2022/10/06 01:09:17;;;;;;;;;;;22.60;49.30;;;;;;6107993;28;20949;-65
2022/10/06 01:12:20;;;;;;;1.00;0.38;;;22.70;49.50;;;;;;6110171;28;20168;-65
2022/10/06 01:15:22;;;;;;;0.65;0.30;;;22.40;49.20;;;;;;6116842;28;20636;-65
2022/10/06 01:18:26;;;;;;;0.30;0.28;;;22.70;49.30;;;;;;6111197;28;20379;-65
2022/10/06 01:21:37;;;;;;;0.50;0.40;;;22.30;48.90;;;;;;6113940;28;20050;-65
2022/10/06 01:24:46;;;;;;;0.30;0.20;;;22.70;49.00;;;;;;6108842;28;20051;-65
2022/10/06 01:27:52;;;;;;;0.80;0.30;;;22.60;48.90;;;;;;6111925;28;20430;-65
2022/10/06 01:30:59;;;;;;;0.30;0.20;;;22.10;48.70;;;;;;6106108;28;20054;-65
2022/10/06 01:34:01;;;;;;;0.38;0.38;;;22.60;49.00;;;;;;6112258;28;20570;-65
2022/10/06 01:37:02;;;;;;;0.50;0.30;;;22.40;48.80;;;;;;6117274;28;20225;-65
2022/10/06 01:40:05;;;;;;;0.32;0.20;;;22.50;48.80;;;;;;6113265;28;20200;-65
2022/10/06 01:43:09;;;;;;;0.28;0.20;;;22.30;48.50;;;;;;6111360;28;20051;-65
2022/10/06 01:46:11;;;;;;;0.70;0.30;;;22.60;48.70;;;;;;6110671;28;21184;-65
2022/10/06 01:49:14;;;;;;;0.40;0.20;;;22.40;48.60;;;;;;6112556;28;20054;-65
2022/10/06 01:52:16;;;;;;;;;;;22.20;48.40;;;;;;6116671;28;20058;-65
2022/10/06 01:55:18;;;;;;;0.20;0.20;;;22.30;48.70;;;;;;6113268;28;20832;-65
2022/10/06 01:58:20;;;;;;;0.40;0.30;;;22.60;48.70;;;;;;6110510;28;20043;-65
2022/10/06 02:01:21;;;;;;;0.35;0.20;;;22.40;48.50;;;;;;6113517;28;20046;-65
2022/10/06 02:04:23;;;;;;;0.30;0.20;;;22.60;48.60;;;;;;6112057;28;20233;-65
2022/10/06 02:07:24;;;;;;;0.43;0.20;;;22.60;48.50;;;;;;6112580;28;20050;-65
2022/10/06 02:10:26;;;;;;;;;;;22.40;48.40;;;;;;6114393;28;20043;-65
2022/10/06 02:13:32;;;;;;;0.20;0.20;;;22.00;48.30;;;;;;6114567;28;19937;-65
2022/10/06 02:16:34;;;;;;;0.65;0.30;;;22.40;48.40;;;;;;6107897;28;20051;-65
2022/10/06 02:19:36;;;;;;;0.32;0.20;;;22.50;48.40;;;;;;6111294;28;20884;-65
2022/10/06 02:22:38;;;;;;;;;;;22.10;48.20;;;;;;6108224;28;20402;-65
2022/10/06 02:25:43;;;;;;;0.40;0.30;;;22.40;48.30;;;;;;6114196;28;19932;-65
2022/10/06 02:28:45;;;;;;;0.20;0.20;;;22.40;48.20;;;;;;6106007;28;20054;-65
2022/10/06 02:31:49;;;;;;;0.20;0.20;;;22.50;48.20;;;;;;6107462;28;20931;-65
2022/10/06 02:34:55;;;;;;;0.45;0.30;;;22.10;48.10;;;;;;6110861;28;20203;-66
2022/10/06 02:37:57;;;;;;;0.88;0.38;;;22.60;48.30;;;;;;6111746;28;20846;-65
2022/10/06 02:41:00;;;;;;;0.60;0.35;;;22.30;48.10;;;;;;6109812;28;20066;-65
2022/10/06 02:44:04;;;;;;;0.70;0.30;;;22.70;48.00;;;;;;6110991;28;20583;-65
2022/10/06 02:47:11;;;;;;;0.82;0.30;;;22.50;48.00;;;;;;6120407;28;20416;-66
2022/10/06 02:50:12;;;;;;;0.32;0.20;;;22.20;47.70;;;;;;6122063;28;20105;-66
2022/10/06 02:53:14;;;;;;;0.25;0.20;;;22.20;47.70;;;;;;6120892;28;20094;-66
2022/10/06 02:56:17;;;;;;;;;;;22.30;48.40;;;;;;6121295;28;20112;-66
2022/10/06 02:59:19;;;;;;;0.60;0.30;;;22.00;47.80;;;;;;6122116;28;19930;-66
2022/10/06 03:02:21;;;;;;;0.30;0.20;;;22.50;47.90;;;;;;6119322;28;20424;-66
2022/10/06 03:05:23;;;;;;;0.30;0.30;;;22.20;47.80;;;;;;6117940;28;20270;-65
2022/10/06 03:08:25;;;;;;;0.20;0.20;;;22.40;47.80;;;;;;6110946;28;20330;-66
2022/10/06 03:11:30;;;;;;;0.85;0.20;;;23.00;48.10;;;;;;6113608;28;20433;-66
2022/10/06 03:14:32;;;;;;;2.33;0.52;;;22.10;47.40;;;;;;6108407;28;20059;-63
2022/10/06 03:17:33;;;;;;;0.45;0.20;;;22.30;47.70;;;;;;6108908;28;20054;-64
2022/10/06 03:20:35;;;;;;;;;;;22.30;47.70;;;;;;6112313;28;20637;-64
2022/10/06 03:23:37;;;;;;;1.55;0.40;;;22.20;47.90;;;;;;6113046;28;19937;-64
2022/10/06 03:26:42;;;;;;;0.30;0.20;;;22.30;47.70;;;;;;6104025;28;20042;-62
2022/10/06 03:29:44;;;;;;;1.40;0.30;;;22.50;47.60;;;;;;6102947;28;20686;-62
2022/10/06 03:32:47;;;;;;;0.30;0.20;;;22.20;47.60;;;;;;6101451;28;20063;-61
2022/10/06 03:35:58;;;;;;;0.50;0.22;;;22.40;47.70;;;;;;6108577;28;20055;-62
2022/10/06 03:39:02;;;;;;;0.40;0.20;;;22.20;47.20;;;;;;6104053;28;20050;-62
2022/10/06 03:42:06;;;;;;;0.60;0.40;;;22.40;47.30;;;;;;6110826;28;20991;-62
2022/10/06 03:45:09;;;;;;;0.30;0.20;;;22.30;47.20;;;;;;6115584;28;20604;-62
2022/10/06 03:48:10;;;;;;;0.28;0.13;;;22.50;47.20;;;;;;6115304;28;20082;-59
2022/10/06 03:51:14;;;;;;;0.60;0.10;;;22.50;47.20;;;;;;6111597;28;20169;-61
2022/10/06 03:54:15;;;;;;;0.60;0.30;;;22.10;46.90;;;;;;6118630;28;20054;-62
2022/10/06 03:57:20;;;;;;;0.40;0.20;;;22.50;47.10;;;;;;6118851;28;20054;-62
2022/10/06 04:00:21;;;;;;;0.30;0.10;;;22.60;47.20;;;;;;6127279;28;20169;-62
2022/10/06 04:03:23;;;;;;;;;;;22.50;47.10;;;;;;6119102;28;20142;-62
2022/10/06 04:06:29;;;;;;;0.20;0.13;;;22.10;47.10;;;;;;6123805;28;20511;-61
2022/10/06 04:09:31;;;;;;;0.30;0.20;;;22.20;46.90;;;;;;6115219;28;20046;-61
2022/10/06 04:12:34;;;;;;;0.40;0.20;;;22.40;47.10;;;;;;6107044;28;20117;-61
2022/10/06 04:15:39;;;;;;;0.68;0.30;;;21.90;46.70;;;;;;6112569;28;20430;-61
2022/10/06 04:18:42;;;;;;;1.13;0.30;;;22.60;47.10;;;;;;6107162;28;20046;-61
2022/10/06 04:21:46;;;;;;;0.52;0.30;;;22.20;46.70;;;;;;6104585;28;20069;-61
2022/10/06 04:24:50;;;;;;;0.20;0.10;;;22.20;46.70;;;;;;6094307;28;20050;-61
2022/10/06 04:27:53;;;;;;;0.63;0.20;;;22.20;46.90;;;;;;6108640;28;20192;-61
2022/10/06 04:30:56;;;;;;;0.50;0.35;;;22.10;46.70;;;;;;6107601;28;20061;-62
2022/10/06 04:33:59;;;;;;;0.25;0.10;;;22.20;46.70;;;;;;6111301;28;20564;-62
2022/10/06 04:37:02;;;;;;;0.50;0.30;;;22.30;46.70;;;;;;6103520;28;20054;-62
2022/10/06 04:40:05;;;;;;;0.45;0.30;;;22.10;47.40;;;;;;6108692;28;20104;-61
2022/10/06 04:43:08;;;;;;;0.50;0.20;;;22.30;46.80;;;;;;6105602;28;20046;-61
2022/10/06 04:46:10;;;;;;;0.38;0.28;;;22.20;46.80;;;;;;6103516;28;20177;-62
2022/10/06 04:49:32;;;;;;;0.60;0.20;;;22.40;61.80;;;;;;6102586;28;20342;-62
2022/10/06 04:52:33;;;;;;;0.82;0.30;;;22.40;46.90;;;;;;6103695;28;20636;-61
2022/10/06 04:55:35;;;;;;;0.75;0.40;;;22.20;46.90;;;;;;6109134;28;20543;-60
2022/10/06 04:58:40;;;;;;;0.98;0.30;;;22.20;47.00;;;;;;6104616;28;20062;-61
2022/10/06 05:01:42;;;;;;;0.20;0.20;;;22.00;46.70;;;;;;6106116;28;20971;-62
2022/10/06 05:04:46;;;;;;;0.45;0.20;;;22.30;46.90;;;;;;6115489;28;20042;-62
2022/10/06 05:07:50;;;;;;;0.80;0.30;;;22.10;46.90;;;;;;6108276;28;20055;-62
2022/10/06 05:10:58;;;;;;;0.50;0.30;;;22.40;46.90;;;;;;6109066;28;20617;-62
2022/10/06 05:14:01;;;;;;;0.60;0.45;;;22.00;46.70;;;;;;6116492;28;20815;-62
2022/10/06 05:17:04;;;;;;;0.30;0.20;;;22.50;47.00;;;;;;6115124;28;21041;-61
2022/10/06 05:20:09;;;;;;;0.50;0.15;;;22.10;46.90;;;;;;6115991;28;20058;-62
2022/10/06 05:23:11;;;;;;;0.50;0.30;;;22.00;46.80;;;;;;6115655;28;20054;-62
2022/10/06 05:26:13;;;;;;;;;;;21.90;46.80;;;;;;6111248;28;20058;-62
2022/10/06 05:29:22;;;;;;;0.50;0.30;;;22.50;47.30;;;;;;6111473;28;20757;-61
2022/10/06 05:32:23;;;;;;;0.60;0.20;;;22.40;47.00;;;;;;6096160;28;20125;-62
2022/10/06 05:35:25;;;;;;;;;;;21.80;46.80;;;;;;6107817;28;20129;-62
2022/10/06 05:38:30;;;;;;;0.47;0.30;;;22.30;47.30;;;;;;6105021;28;19929;-61
2022/10/06 05:41:33;;;;;;;0.60;0.30;;;22.40;47.10;;;;;;6108105;28;20051;-62
2022/10/06 05:44:38;;;;;;;0.30;0.22;;;21.90;46.80;;;;;;6104950;28;20054;-62
2022/10/06 05:47:47;;;;;;;0.50;0.38;;;22.30;47.00;;;;;;6108137;28;20246;-62
2022/10/06 05:50:57;;;;;;;0.30;0.25;;;22.10;46.80;;;;;;6108274;28;20050;-62
2022/10/06 05:53:59;;;;;;;0.38;0.38;;;21.90;46.50;;;;;;6111767;28;20050;-61
2022/10/06 05:57:02;;;;;;;0.70;0.40;;;22.00;46.60;;;;;;6107375;28;20059;-61
2022/10/06 06:00:07;;;;;;;0.55;0.38;;;21.80;46.50;;;;;;6106394;28;20141;-61
2022/10/06 06:03:14;;;;;;;1.17;0.50;;;22.30;46.60;;;;;;6093366;28;20047;-61
2022/10/06 06:06:17;;;;;;;0.98;0.30;;;22.30;46.80;;;;;;6075687;28;20046;-61
2022/10/06 06:09:21;;;;;;;0.93;0.20;;;22.30;47.10;;;;;;6068287;28;20062;-62
2022/10/06 06:12:24;;;;;;;0.88;0.45;;;22.20;46.60;;;;;;6075348;28;20055;-62
2022/10/06 06:18:59;;;;;;;1.45;0.50;;;22.00;46.60;;;;;;6067054;28;20193;-61
2022/10/06 06:22:01;;;;;;;0.60;0.40;;;22.20;46.70;;;;;;6074002;28;20047;-62
2022/10/06 06:25:06;;;;;;;0.80;0.40;;;21.90;46.60;;;;;;6081575;28;20079;-62
2022/10/06 06:28:08;;;;;;;2.92;0.35;;;21.70;46.40;;;;;;6060562;28;20166;-61
2022/10/06 06:31:13;;;;;;;2.17;0.40;;;21.90;46.70;;;;;;6043438;28;20055;-61
2022/10/06 06:34:22;;;;;;;2.17;0.60;;;22.00;46.50;;;;;;6067987;28;20055;-61
2022/10/06 06:37:23;;;;;;;1.33;0.40;;;22.00;46.80;;;;;;6053019;28;20062;-61
2022/10/06 06:40:25;;;;;;;1.45;0.43;;;22.30;46.80;;;;;;6032476;28;21012;-61
2022/10/06 06:43:27;;;;;;;1.23;0.50;;;22.30;46.90;;;;;;6022963;28;21194;-62
2022/10/06 06:46:49;;;;;;;0.90;0.40;;;21.90;46.70;;;;;;6007556;28;20086;-62
2022/10/06 06:49:53;;;;;;;1.63;0.60;;;22.30;47.00;;;;;;6011070;28;20137;-62
2022/10/06 06:52:55;;;;;;;1.70;0.63;;;22.10;46.90;;;;;;6000810;28;20054;-63
2022/10/06 06:55:57;;;;;;;1.60;0.60;;;22.50;47.40;;;;;;5998582;28;20837;-68
2022/10/06 06:59:00;;;;;;;0.90;0.55;;;22.20;47.60;;;;;;5975030;28;20042;-62
2022/10/06 07:02:02;;;;;;;1.92;0.35;;;22.20;47.50;;;;;;5971765;28;20051;-63
2022/10/06 07:05:07;;;;;;;1.75;0.40;;;22.40;47.70;;;;;;5968114;28;20058;-62
2022/10/06 07:08:09;;;;;;;1.65;0.75;;;22.10;47.90;;;;;;5951586;28;20058;-62
2022/10/06 07:11:15;;;;;;;2.85;0.70;;;22.20;47.90;;;;;;5940707;28;20166;-61
2022/10/06 07:14:17;;;;;;;1.25;0.40;;;22.40;48.10;;;;;;5938122;28;21489;-64
2022/10/06 07:27:10;;;;;;;1.00;0.43;;;22.40;48.50;;;;;;5921755;28;20047;-60
2022/10/06 07:30:18;;;;;;;2.92;0.65;;;22.50;48.30;;;;;;5897676;28;22414;-63
2022/10/06 07:33:22;;;;;;;1.92;0.65;;;22.90;48.50;;;;;;5916899;28;20043;-60
2022/10/06 07:36:25;;;;;;;1.05;0.47;;;22.50;48.30;;;;;;5929802;28;20109;-62
2022/10/06 07:39:28;;;;;;;1.95;0.63;;;22.60;48.40;;;;;;5952440;28;20050;-62
2022/10/06 07:42:30;;;;;;;2.25;0.70;;;22.50;48.10;;;;;;5917136;28;20062;-60
2022/10/06 07:45:40;;;;;;;2.20;0.75;;;22.50;48.30;;;;;;5908431;28;20127;-58
2022/10/06 07:48:48;;;;;;;1.85;0.60;;;22.40;48.10;;;;;;5916899;28;20913;-62
2022/10/06 07:51:52;;;;;;;3.70;1.00;;;22.90;48.50;;;;;;5942705;28;20165;-66
2022/10/06 07:54:54;;;;;;;2.60;0.60;;;22.90;48.40;;;;;;5933373;28;20177;-62
2022/10/06 07:58:10;;;;;;;1.52;0.50;;;22.50;48.30;;;;;;5929959;28;22194;-67
2022/10/06 08:01:13;;;;;;;3.03;0.65;;;22.90;48.70;;;;;;5894900;28;21995;-65
2022/10/06 08:04:16;;;;;;;1.38;0.65;;;23.00;48.50;;;;;;5844045;28;20043;-62
2022/10/06 08:07:20;;;;;;;2.00;0.50;;;22.80;48.30;;;;;;5878945;28;20049;-66
2022/10/06 08:10:22;;;;;;;2.38;0.50;;;22.80;48.40;;;;;;5862233;28;20051;-65
2022/10/06 08:13:25;;;;;;;2.63;0.80;;;22.90;48.20;;;;;;5859638;28;20189;-66
2022/10/06 08:16:28;;;;;;;1.75;0.50;;;23.00;48.40;;;;;;5886604;28;20047;-61
2022/10/06 08:19:31;;;;;;;1.52;0.40;;;23.20;48.20;;;;;;5898490;28;20237;-66
2022/10/06 08:22:34;;;;;;;3.10;0.60;;;22.90;48.10;;;;;;5889940;28;20057;-65
2022/10/06 08:25:41;;;;;;;1.27;0.60;;;23.40;48.40;;;;;;5882713;28;20082;-64
2022/10/06 08:28:44;;;;;;;1.50;0.50;;;23.00;48.10;;;;;;5895460;28;20057;-62
2022/10/06 08:31:45;;;;;;;1.35;0.40;;;22.80;48.00;;;;;;5860743;28;20054;-65
2022/10/06 08:34:48;;;;;;;0.90;0.40;;;22.90;48.20;;;;;;5847376;28;20273;-66
2022/10/06 08:37:52;;;;;;;1.02;0.50;;;23.10;48.10;;;;;;5898180;28;21308;-65
2022/10/06 08:40:53;;;;;;;1.20;0.65;;;23.20;48.20;;;;;;5875278;28;20051;-65
2022/10/06 08:44:01;;;;;;;1.33;0.60;;;23.10;48.10;;;;;;5883475;28;20066;-67
2022/10/06 08:47:10;;;;;;;1.38;0.40;;;23.20;48.20;;;;;;5887011;28;20735;-65
2022/10/06 08:50:12;;;;;;;0.68;0.38;;;23.20;48.20;;;;;;5880539;28;20168;-67
2022/10/06 08:53:24;;;;;;;3.13;0.70;;;23.00;48.10;;;;;;5877561;28;20960;-66
2022/10/06 08:56:32;;;;;;;0.85;0.50;;;23.00;48.10;;;;;;5873419;28;21916;-65
2022/10/06 08:59:35;;;;;;;2.05;0.50;;;23.30;48.40;;;;;;5880886;28;20490;-59
2022/10/06 09:02:40;;;;;;;0.50;0.30;;;23.10;48.20;;;;;;5840907;28;20046;-60
2022/10/06 09:05:43;;;;;;;2.05;0.57;;;23.30;48.20;;;;;;5889456;28;20189;-60
2022/10/06 09:08:51;;;;;;;0.35;0.30;;;23.30;48.30;;;;;;5865611;28;20055;-57
2022/10/06 09:12:02;;;;;;;1.00;0.30;;;23.20;48.20;;;;;;5862594;28;20565;-60
2022/10/06 09:15:22;;;;;;;0.80;0.40;;;24.00;48.60;;;;;;5862783;28;20051;-59
2022/10/06 09:18:30;;;;;;;1.20;0.50;;;23.30;48.20;;;;;;5889655;28;20046;-59
2022/10/06 09:21:53;;;;;;;0.30;0.25;;;23.70;48.40;;;;;;5859357;28;20329;-60
2022/10/06 09:24:58;;;;;;;1.23;0.47;;;23.40;48.40;;;;;;5899627;28;20182;-59
2022/10/06 09:28:02;;;;;;;0.70;0.40;;;23.30;48.20;;;;;;5819689;28;20051;-59
2022/10/06 09:31:17;;;;;;;0.80;0.40;;;23.40;48.30;;;;;;5868624;28;20043;-58
2022/10/06 09:34:27;;;;;;;1.30;0.45;;;23.10;48.30;;;;;;5870514;28;21174;-57
2022/10/06 09:37:53;;;;;;;0.57;0.30;;;23.30;48.30;;;;;;5868373;28;20818;-59
2022/10/06 09:40:55;;;;;;;0.90;0.50;;;23.70;48.50;;;;;;5904931;28;20118;-58
2022/10/06 09:43:59;;;;;;;1.27;0.60;;;23.50;49.20;;;;;;5888877;28;20046;-59
2022/10/06 09:47:00;;;;;;;1.00;0.50;;;23.50;48.60;;;;;;5903092;28;21230;-59
2022/10/06 09:50:14;;;;;;;1.52;0.40;;;23.40;48.50;;;;;;5901063;28;20043;-59
2022/10/06 09:53:17;;;;;;;0.50;0.45;;;23.20;48.40;;;;;;5888402;28;20051;-59
2022/10/06 09:56:19;;;;;;;0.75;0.35;;;23.50;48.60;;;;;;5884650;28;22676;-58
2022/10/06 09:59:25;;;;;;;1.23;0.45;;;23.30;48.50;;;;;;5869114;28;20458;-60
2022/10/06 10:02:35;;;;;;;0.40;0.38;;;23.30;48.60;;;;;;5867554;28;20053;-59
2022/10/06 10:05:45;;;;;;;0.95;0.40;;;23.50;48.70;;;;;;5865587;28;20039;-58
2022/10/06 10:08:47;;;;;;;1.10;0.47;;;23.50;48.70;;;;;;5859378;28;20069;-59
2022/10/06 10:15:26;;;;;;;5.53;0.65;;;23.30;48.60;;;;;;5864691;28;20082;-59
2022/10/06 10:18:30;;;;;;;0.45;0.30;;;23.40;48.60;;;;;;5863646;28;20054;-59
2022/10/06 10:21:34;;;;;;;0.77;0.50;;;24.00;48.80;;;;;;5894486;28;20208;-59
2022/10/06 10:24:49;;;;;;;0.40;0.30;;;23.50;48.60;;;;;;5888197;28;20157;-59
2022/10/06 10:27:57;;;;;;;0.90;0.45;;;23.50;48.50;;;;;;5895452;28;20054;-58
2022/10/06 10:31:05;;;;;;;0.63;0.30;;;23.50;48.50;;;;;;5922908;28;23535;-60
2022/10/06 10:34:14;;;;;;;2.13;0.50;;;23.50;48.60;;;;;;5902734;28;22295;-59
2022/10/06 10:37:34;;;;;;;2.10;0.40;;;23.40;48.50;;;;;;5932790;28;20053;-61
2022/10/06 10:40:42;;;;;;;1.97;0.30;;;23.60;48.70;;;;;;5958292;28;21129;-62
2022/10/06 10:43:48;;;;;;;1.00;0.50;;;23.30;48.50;;;;;;5942966;28;20213;-62
2022/10/06 10:46:55;;;;;;;0.98;0.30;;;23.50;48.60;;;;;;5956978;28;20042;-61
2022/10/06 10:50:03;;;;;;;1.02;0.38;;;23.60;48.20;;;;;;5955097;28;21312;-61
2022/10/06 10:53:10;;;;;;;2.28;0.50;;;23.50;48.50;;;;;;5973263;28;20050;-61
2022/10/06 10:56:15;;;;;;;2.20;0.40;;;23.50;48.40;;;;;;5973343;28;20051;-61
2022/10/06 10:59:22;;;;;;;2.75;0.68;;;23.40;48.40;;;;;;5959690;28;22824;-62
2022/10/06 11:02:23;;;;;;;1.38;0.55;;;23.50;48.30;;;;;;5971803;28;20046;-61
2022/10/06 11:05:38;;;;;;;2.22;0.93;;;23.40;48.30;;;;;;5957404;28;20049;-62
2022/10/06 11:08:48;;;;;;;2.35;0.43;;;23.30;48.10;;;;;;5936196;28;20055;-61
2022/10/06 11:12:02;;;;;;;2.05;0.63;;;23.50;48.10;;;;;;5981328;28;20039;-62
2022/10/06 11:15:11;;;;;;;1.40;0.55;;;23.40;48.10;;;;;;5986305;28;20211;-62
2022/10/06 11:18:26;;;;;;;1.15;0.77;;;23.30;48.00;;;;;;6023818;28;20174;-62
2022/10/06 11:21:35;;;;;;;1.40;0.50;;;23.60;48.60;;;;;;5991869;28;20059;-61
2022/10/06 11:24:44;;;;;;;1.20;0.50;;;23.20;47.60;;;;;;5984532;28;20051;-61
2022/10/06 11:27:58;;;;;;;2.05;0.40;;;23.20;47.50;;;;;;5990491;28;20510;-62
2022/10/06 11:31:09;;;;;;;3.22;0.70;;;23.60;47.40;;;;;;5987914;28;20913;-61
2022/10/06 11:34:11;;;;;;;2.42;0.90;;;23.60;47.40;;;;;;5935117;28;20107;-61
2022/10/06 11:37:23;;;;;;;1.30;0.50;;;23.60;47.50;;;;;;5975885;28;20903;-60
2022/10/06 11:40:35;;;;;;;2.10;0.60;;;23.70;47.20;;;;;;5925914;28;20063;-61
2022/10/06 11:43:45;;;;;;;1.65;0.45;;;23.60;47.10;;;;;;5870228;28;20603;-61
2022/10/06 11:46:52;;;;;;;1.40;0.63;;;23.40;46.80;;;;;;5923880;28;20165;-61
2022/10/06 11:49:55;;;;;;;1.58;0.50;;;23.70;46.90;;;;;;5895180;28;20185;-62
2022/10/06 11:52:56;;;;;;;2.50;0.50;;;23.50;46.70;;;;;;5893868;28;20047;-62
2022/10/06 11:56:27;;;;;;;1.95;0.60;;;23.60;46.70;;;;;;5901898;28;23430;-61
2022/10/06 11:59:30;;;;;;;3.83;0.40;;;23.50;46.40;;;;;;5848715;28;20054;-60
2022/10/06 12:02:36;;;;;;;1.55;0.70;;;23.50;46.40;;;;;;5845705;28;20046;-66
2022/10/06 12:05:38;;;;;;;4.88;0.82;;;23.70;46.40;;;;;;5800496;28;20055;-63
2022/10/06 12:09:00;;;;;;;;;;;23.80;46.30;;;;;;5851845;28;20047;-62
2022/10/06 12:12:37;;;;;;;5.35;1.08;;;23.80;46.40;;;;;;5847044;28;19929;-63
2022/10/06 12:16:00;;;;;;;4.65;0.88;;;23.60;46.20;;;;;;5834578;28;20140;-63
2022/10/06 12:19:26;;;;;;;2.35;0.50;;;23.80;46.00;;;;;;5830980;28;20058;-60
2022/10/06 12:22:31;;;;;;;5.97;1.30;;;23.40;45.70;;;;;;5854802;28;20142;-60
2022/10/06 12:25:38;;;;;;;3.42;1.17;;;23.50;45.60;;;;;;5846445;28;20934;-61
2022/10/06 12:28:47;;;;;;;4.88;1.25;;;23.90;45.60;;;;;;5833174;28;20141;-63
2022/10/06 12:31:59;;;;;;;2.10;0.80;;;23.70;45.60;;;;;;5872619;28;20222;-59
2022/10/06 12:35:02;;;;;;;;;;;23.80;45.10;;;;;;5883146;28;20055;-62
2022/10/06 12:38:05;;;;;;;3.65;1.30;;;23.90;45.20;;;;;;5858097;28;19973;-61
2022/10/06 12:41:09;;;;;;;4.78;1.63;;;23.80;45.00;;;;;;5855836;28;20089;-60
2022/10/06 12:44:25;;;;;;;3.05;1.00;;;23.90;44.80;;;;;;5850301;28;20050;-58
2022/10/06 12:47:33;;;;;;;3.05;1.35;;;23.70;44.30;;;;;;5856402;28;20135;-59
2022/10/06 12:50:36;;;;;;;5.95;1.20;;;23.60;44.10;;;;;;5872847;28;20050;-60
2022/10/06 12:53:49;;;;;;;1.90;0.88;;;24.10;44.30;;;;;;5875190;28;20066;-60
2022/10/06 12:56:59;;;;;;;2.63;0.75;;;24.10;44.10;;;;;;5881001;28;20047;-57
2022/10/06 13:00:01;;;;;;;2.75;0.73;;;24.10;43.70;;;;;;5870936;28;20189;-61
2022/10/06 13:03:07;;;;;;;3.45;0.80;;;24.10;43.60;;;;;;5877440;28;20201;-55
2022/10/06 13:06:10;;;;;;;1.92;0.50;;;24.00;43.30;;;;;;5829275;28;20105;-56
2022/10/06 13:09:13;;;;;;;1.92;0.80;;;24.20;56.70;;;;;;5850927;28;20047;-55
2022/10/06 13:12:22;;;;;;;1.63;0.70;;;23.80;42.70;;;;;;5860836;28;20060;-51
2022/10/06 13:15:28;;;;;;;1.85;0.50;;;24.20;42.70;;;;;;5877678;28;20487;-54
2022/10/06 13:18:31;;;;;;;1.33;0.55;;;24.20;42.50;;;;;;5892729;28;20144;-54
2022/10/06 13:21:33;;;;;;;1.40;0.40;;;24.10;42.00;;;;;;5865871;28;20061;-53
2022/10/06 13:24:35;;;;;;;1.13;0.43;;;24.20;41.50;;;;;;5817622;28;20180;-51
2022/10/06 13:27:37;;;;;;;2.42;0.43;;;24.10;41.10;;;;;;5838771;28;20206;-52
2022/10/06 13:30:38;;;;;;;0.85;0.30;;;24.10;40.90;;;;;;5824805;28;20042;-51
2022/10/06 13:33:42;;;;;;;1.05;0.40;;;24.30;40.70;;;;;;5829092;28;20081;-52
2022/10/06 13:36:47;;;;;;;1.02;0.30;;;24.20;40.50;;;;;;5862272;28;20047;-51
2022/10/06 13:39:49;;;;;;;1.02;0.40;;;24.10;40.30;;;;;;5849439;28;21118;-50
2022/10/06 13:52:34;;;;;;;0.60;0.30;;;24.10;40.00;;;;;;5840278;28;21180;-51
2022/10/06 13:55:35;;;;;;;1.13;0.30;;;24.20;40.40;;;;;;5824296;28;20059;-51
2022/10/06 13:58:37;;;;;;;0.57;0.28;;;24.20;40.20;;;;;;5796279;28;20500;-51
2022/10/06 14:01:38;;;;;;;0.80;0.30;;;24.20;40.10;;;;;;5800211;28;20060;-52
2022/10/06 14:04:40;;;;;;;2.35;0.30;;;24.00;39.90;;;;;;5797220;28;21054;-59
2022/10/06 14:07:43;;;;;;;1.27;0.30;;;24.40;40.10;;;;;;5808222;28;20161;-54
2022/10/06 14:10:47;;;;;;;1.48;0.22;;;23.80;39.70;;;;;;5814143;28;20038;-52
2022/10/06 14:13:53;;;;;;;0.50;0.30;;;24.10;39.80;;;;;;5825094;28;20048;-54
2022/10/06 14:16:56;;;;;;;0.20;0.10;;;24.10;39.70;;;;;;5826191;28;20043;-52
2022/10/06 14:19:57;;;;;;;1.33;0.50;;;24.20;39.50;;;;;;5802268;28;20046;-57
2022/10/06 14:23:00;;;;;;;0.47;0.30;;;24.20;39.50;;;;;;5839948;28;20122;-58
2022/10/06 14:26:06;;;;;;;0.65;0.45;;;24.20;39.40;;;;;;5818092;28;20055;-56
2022/10/06 14:29:07;;;;;;;0.40;0.30;;;24.20;39.60;;;;;;5793190;28;21320;-54
2022/10/06 14:32:12;;;;;;;0.68;0.30;;;24.20;39.40;;;;;;5785568;29;20129;-54
2022/10/06 14:35:14;;;;;;;0.82;0.38;;;24.40;39.60;;;;;;5798000;28;20126;-56
2022/10/06 14:38:16;;;;;;;0.68;0.30;;;24.20;39.60;;;;;;5807066;28;20142;-57
2022/10/06 14:41:23;;;;;;;0.40;0.20;;;24.00;39.80;;;;;;5812738;29;20054;-56
2022/10/06 14:44:25;;;;;;;1.73;0.30;;;24.20;39.80;;;;;;5828815;28;20040;-54
2022/10/06 14:47:29;;;;;;;0.70;0.22;;;24.20;40.40;;;;;;5828490;28;20051;-56
2022/10/06 14:50:30;;;;;;;0.50;0.28;;;24.30;39.90;;;;;;5861344;28;20055;-56
2022/10/06 14:53:33;;;;;;;1.42;0.40;;;24.10;39.80;;;;;;5846852;28;21685;-55
2022/10/06 14:56:36;;;;;;;0.40;0.20;;;24.20;40.00;;;;;;5863382;29;20054;-58
2022/10/06 14:59:38;;;;;;;0.60;0.30;;;24.10;39.80;;;;;;5879157;28;21028;-54
2022/10/06 15:02:39;;;;;;;0.75;0.32;;;24.10;40.30;;;;;;5809112;28;20044;-55
2022/10/06 15:08:59;;;;;;;0.38;0.28;;;24.10;39.70;;;;;;5755287;28;20052;-53
2022/10/06 15:12:01;;;;;;;0.63;0.20;;;24.20;39.80;;;;;;5786116;28;20044;-54
2022/10/06 15:15:06;;;;;;;0.80;0.25;;;24.70;40.00;;;;;;5778394;29;20051;-55
2022/10/06 15:18:08;;;;;;;0.30;0.30;;;24.10;39.60;;;;;;5790197;28;20055;-55
2022/10/06 15:21:11;;;;;;;0.40;0.35;;;24.10;39.50;;;;;;5813462;28;20124;-49
2022/10/06 15:24:15;;;;;;;0.47;0.30;;;24.30;39.50;;;;;;5797914;28;22805;-52
2022/10/06 15:30:38;;;;;;;0.85;0.30;;;24.30;39.50;;;;;;5804032;28;20185;-53
2022/10/06 15:33:39;;;;;;;0.40;0.20;;;24.40;39.50;;;;;;5831801;29;21349;-53
2022/10/06 15:36:42;;;;;;;0.65;0.30;;;24.30;39.50;;;;;;5847791;28;20055;-53
2022/10/06 15:39:48;;;;;;;0.77;0.20;;;23.90;39.20;;;;;;5844040;28;20269;-60
2022/10/06 15:42:49;;;;;;;1.75;0.30;;;24.30;39.40;;;;;;5876721;28;20139;-61
2022/10/06 15:45:54;;;;;;;0.35;0.20;;;24.30;39.50;;;;;;5906117;28;20380;-60
2022/10/06 15:49:00;;;;;;;0.80;0.22;;;24.20;39.30;;;;;;5874760;28;21146;-60
2022/10/06 15:52:02;;;;;;;1.45;0.20;;;24.20;39.30;;;;;;5886717;28;20166;-62
2022/10/06 15:55:06;;;;;;;0.55;0.25;;;24.00;39.30;;;;;;5886709;28;21452;-62
2022/10/06 15:58:07;;;;;;;0.77;0.30;;;24.20;39.40;;;;;;5910837;28;20047;-62
2022/10/06 16:01:39;;;;;;;0.45;0.10;;;24.20;39.30;;;;;;5910583;28;20059;-62
2022/10/06 16:05:14;;;;;;;0.20;0.20;;;24.30;39.40;;;;;;5885149;28;20051;-59
2022/10/06 16:08:15;;;;;;;2.00;0.20;;;24.40;39.60;;;;;;5890700;28;20040;-59
2022/10/06 16:11:17;;;;;;;0.77;0.20;;;24.00;39.20;;;;;;5925673;28;20134;-61
2022/10/06 16:14:19;;;;;;;0.90;0.38;;;24.20;39.30;;;;;;5939554;28;20076;-61
2022/10/06 16:17:21;;;;;;;1.20;0.43;;;24.20;39.30;;;;;;5960043;28;20043;-60
2022/10/06 16:20:22;;;;;;;0.52;0.20;;;24.20;39.30;;;;;;5971272;28;20049;-60
2022/10/06 16:23:24;;;;;;;0.80;0.30;;;24.00;39.30;;;;;;5975084;28;20062;-61
2022/10/06 16:26:27;;;;;;;0.95;0.38;;;24.20;39.30;;;;;;5966406;28;20059;-60
2022/10/06 16:29:29;;;;;;;0.80;0.30;;;24.30;39.30;;;;;;5964458;28;20047;-61
2022/10/06 16:32:30;;;;;;;0.82;0.30;;;24.20;39.30;;;;;;5971335;28;20051;-60
2022/10/06 16:35:32;;;;;;;0.70;0.20;;;24.20;39.20;;;;;;6007228;28;21309;-59
2022/10/06 16:38:33;;;;;;;0.50;0.28;;;24.30;39.30;;;;;;6018378;28;20058;-62
2022/10/06 16:41:35;;;;;;;0.60;0.40;;;24.20;39.10;;;;;;6031058;28;20066;-61